ENST/SSJ METAR and TAF weather

Enter ICAO airport designator
Station Type Date Time Source
ENST METAR 2022/01/26 08:20 UTC NOAA

ENST 260820Z 19012KT 160V210 9999 RA FEW008 SCT014 BKN019 03/02 Q0996 RMK WIND 300FT 19011KT


Station Type Date Time Source
ENST Decoded METAR 2022/01/26 08:20 UTC NOAA

Sandnessjoen / Stokka, Norway (ENST) 65-58N 012-28E 17M
Jan 26, 2022 - 03:20 AM EST / 2022.01.26 0820 UTC
Wind: from the S (190 degrees) at 14 MPH (12 KT) (direction variable):0
Visibility: greater than 7 mile(s):0
Sky conditions: mostly cloudy
Weather: rain
Temperature: 37 F (3 C)
Dew Point: 35 F (2 C)
Relative Humidity: 93%
Pressure (altimeter): 29.41 in. Hg (0996 hPa)
ob: ENST 260820Z 19012KT 160V210 9999 RA FEW008 SCT014 BKN019 03/02 Q0996 RMK WIND 300FT 19011KT
cycle: 8

Station Type Date Time Source
ENST TAF UTC NOAA

Error!

Example: see airport list